Basin City, Washington
Current Conditions -  °F | °C
As of 9:53 AM on Tuesday 21 Oct 2014 (Local Time) from KPSC Reporting Station
Clear Clear  
Wind Chill: 58°   Ceiling: Unl
Heat Index: 58°   Visibility: 10mi
Dew Point: 48°   Wind: 18mph
Humidity: 70%   Direction: 230°SW
Pressure: 29.94"   Gusts: NA
Location:  46.5851°N, 119.156°W
Report Text: KPSC 211653Z 23016KT 10SM CLR 14/09 A2994 RMK AO2 SLP137 T01440089
Loading
Personal Weather Stations






























Interactive Weather Map
Tropical Storm Tracking
New forecast layout! Learn more

10-Day Weather Forecast

Advertisements
Track Severe Weather on mobile